sensor_id;sensor_type;location;lat;lon;timestamp;temperature;humidity
18974;DHT22;9621;48.690;9.466;2023-07-16T00:01:37;18.40;99.90
18974;DHT22;9621;48.690;9.466;2023-07-16T00:04:04;18.40;99.90
18974;DHT22;9621;48.690;9.466;2023-07-16T00:06:31;18.30;99.90
18974;DHT22;9621;48.690;9.466;2023-07-16T00:08:59;18.20;99.90
18974;DHT22;9621;48.690;9.466;2023-07-16T00:11:26;18.20;99.90
18974;DHT22;9621;48.690;9.466;2023-07-16T00:13:54;18.20;99.90
18974;DHT22;9621;48.690;9.466;2023-07-16T00:16:21;18.20;99.90
18974;DHT22;9621;48.690;9.466;2023-07-16T00:18:48;18.20;99.90
18974;DHT22;9621;48.690;9.466;2023-07-16T00:21:15;18.20;99.90
18974;DHT22;9621;48.690;9.466;2023-07-16T00:23:42;18.20;99.90
18974;DHT22;9621;48.690;9.466;2023-07-16T00:26:08;18.10;99.90
18974;DHT22;9621;48.690;9.466;2023-07-16T00:28:36;18.10;99.90
18974;DHT22;9621;48.690;9.466;2023-07-16T00:31:04;18.00;99.90
18974;DHT22;9621;48.690;9.466;2023-07-16T00:33:31;18.00;99.90
18974;DHT22;9621;48.690;9.466;2023-07-16T00:35:58;18.00;99.90
18974;DHT22;9621;48.690;9.466;2023-07-16T00:38:25;17.90;99.90
18974;DHT22;9621;48.690;9.466;2023-07-16T00:40:51;18.00;99.90
18974;DHT22;9621;48.690;9.466;2023-07-16T00:43:18;17.90;99.90
18974;DHT22;9621;48.690;9.466;2023-07-16T00:45:45;17.90;99.90
18974;DHT22;9621;48.690;9.466;2023-07-16T00:48:14;18.00;99.90
18974;DHT22;9621;48.690;9.466;2023-07-16T00:50:41;18.00;99.90
18974;DHT22;9621;48.690;9.466;2023-07-16T00:53:09;18.00;99.90
18974;DHT22;9621;48.690;9.466;2023-07-16T00:55:37;18.00;99.90
18974;DHT22;9621;48.690;9.466;2023-07-16T00:58:07;18.00;99.90
18974;DHT22;9621;48.690;9.466;2023-07-16T01:00:34;17.90;99.90
18974;DHT22;9621;48.690;9.466;2023-07-16T01:03:03;18.00;99.90
18974;DHT22;9621;48.690;9.466;2023-07-16T01:05:36;18.00;99.90
18974;DHT22;9621;48.690;9.466;2023-07-16T01:08:06;18.00;99.90
18974;DHT22;9621;48.690;9.466;2023-07-16T01:10:36;18.00;99.90
18974;DHT22;9621;48.690;9.466;2023-07-16T01:13:04;18.00;99.90
18974;DHT22;9621;48.690;9.466;2023-07-16T01:15:31;17.90;99.90
18974;DHT22;9621;48.690;9.466;2023-07-16T01:17:58;18.00;99.90
18974;DHT22;9621;48.690;9.466;2023-07-16T01:20:25;17.90;99.90
18974;DHT22;9621;48.690;9.466;2023-07-16T01:23:15;17.90;99.90
18974;DHT22;9621;48.690;9.466;2023-07-16T01:26:14;18.00;99.90
18974;DHT22;9621;48.690;9.466;2023-07-16T01:29:09;17.90;99.90
18974;DHT22;9621;48.690;9.466;2023-07-16T01:31:37;17.80;99.90
18974;DHT22;9621;48.690;9.466;2023-07-16T01:34:05;17.80;99.90
18974;DHT22;9621;48.690;9.466;2023-07-16T01:36:33;17.80;99.90
18974;DHT22;9621;48.690;9.466;2023-07-16T01:39:01;17.80;99.90
18974;DHT22;9621;48.690;9.466;2023-07-16T01:41:28;17.80;99.90
18974;DHT22;9621;48.690;9.466;2023-07-16T01:43:56;17.80;99.90
18974;DHT22;9621;48.690;9.466;2023-07-16T01:46:25;17.80;99.90
18974;DHT22;9621;48.690;9.466;2023-07-16T01:48:52;17.80;99.90
18974;DHT22;9621;48.690;9.466;2023-07-16T01:51:19;17.80;99.90
18974;DHT22;9621;48.690;9.466;2023-07-16T01:53:46;17.90;99.90
18974;DHT22;9621;48.690;9.466;2023-07-16T01:56:13;17.80;99.90
18974;DHT22;9621;48.690;9.466;2023-07-16T01:58:40;17.90;99.90
18974;DHT22;9621;48.690;9.466;2023-07-16T02:01:08;17.90;99.90
18974;DHT22;9621;48.690;9.466;2023-07-16T02:03:36;17.90;99.90
18974;DHT22;9621;48.690;9.466;2023-07-16T02:06:04;17.90;99.90
18974;DHT22;9621;48.690;9.466;2023-07-16T02:08:30;17.90;99.90
18974;DHT22;9621;48.690;9.466;2023-07-16T02:10:57;17.90;99.90
18974;DHT22;9621;48.690;9.466;2023-07-16T02:13:25;17.90;99.90
18974;DHT22;9621;48.690;9.466;2023-07-16T02:15:52;17.90;99.90
18974;DHT22;9621;48.690;9.466;2023-07-16T02:18:19;17.90;99.90
18974;DHT22;9621;48.690;9.466;2023-07-16T02:20:47;17.90;99.90
18974;DHT22;9621;48.690;9.466;2023-07-16T02:23:14;17.90;99.90
18974;DHT22;9621;48.690;9.466;2023-07-16T02:25:41;17.90;99.90
18974;DHT22;9621;48.690;9.466;2023-07-16T02:28:09;17.90;99.90
18974;DHT22;9621;48.690;9.466;2023-07-16T02:30:35;17.90;99.90
18974;DHT22;9621;48.690;9.466;2023-07-16T02:33:02;17.90;99.90
18974;DHT22;9621;48.690;9.466;2023-07-16T02:35:29;17.90;99.90
18974;DHT22;9621;48.690;9.466;2023-07-16T02:37:58;17.90;99.90
18974;DHT22;9621;48.690;9.466;2023-07-16T02:40:25;17.80;99.90
18974;DHT22;9621;48.690;9.466;2023-07-16T02:42:51;17.80;99.90
18974;DHT22;9621;48.690;9.466;2023-07-16T02:45:19;17.80;99.90
18974;DHT22;9621;48.690;9.466;2023-07-16T02:47:46;17.80;99.90
18974;DHT22;9621;48.690;9.466;2023-07-16T02:50:13;17.70;99.90
18974;DHT22;9621;48.690;9.466;2023-07-16T02:52:39;17.60;99.90
18974;DHT22;9621;48.690;9.466;2023-07-16T02:55:08;17.60;99.90
18974;DHT22;9621;48.690;9.466;2023-07-16T02:57:35;17.60;99.90
18974;DHT22;9621;48.690;9.466;2023-07-16T03:00:03;17.50;99.90
18974;DHT22;9621;48.690;9.466;2023-07-16T03:02:30;17.40;99.90
18974;DHT22;9621;48.690;9.466;2023-07-16T03:04:57;17.20;99.90
18974;DHT22;9621;48.690;9.466;2023-07-16T03:07:24;17.20;99.90
18974;DHT22;9621;48.690;9.466;2023-07-16T03:09:51;17.10;99.90
18974;DHT22;9621;48.690;9.466;2023-07-16T03:12:19;17.00;99.90
18974;DHT22;9621;48.690;9.466;2023-07-16T03:14:46;16.90;99.90
18974;DHT22;9621;48.690;9.466;2023-07-16T03:17:13;16.70;99.90
18974;DHT22;9621;48.690;9.466;2023-07-16T03:19:40;16.70;99.90
18974;DHT22;9621;48.690;9.466;2023-07-16T03:22:07;16.60;99.90
18974;DHT22;9621;48.690;9.466;2023-07-16T03:24:34;16.50;99.90
18974;DHT22;9621;48.690;9.466;2023-07-16T03:27:01;16.40;99.90
18974;DHT22;9621;48.690;9.466;2023-07-16T03:29:29;16.40;99.90
18974;DHT22;9621;48.690;9.466;2023-07-16T03:31:56;16.30;99.90
18974;DHT22;9621;48.690;9.466;2023-07-16T03:34:23;16.20;99.90
18974;DHT22;9621;48.690;9.466;2023-07-16T03:36:50;16.20;99.90
18974;DHT22;9621;48.690;9.466;2023-07-16T03:39:17;16.10;99.90
18974;DHT22;9621;48.690;9.466;2023-07-16T03:41:44;16.10;99.90
18974;DHT22;9621;48.690;9.466;2023-07-16T03:44:11;16.10;99.90
18974;DHT22;9621;48.690;9.466;2023-07-16T03:46:39;16.10;99.90
18974;DHT22;9621;48.690;9.466;2023-07-16T03:49:07;16.10;99.90
18974;DHT22;9621;48.690;9.466;2023-07-16T03:51:34;16.00;99.90
18974;DHT22;9621;48.690;9.466;2023-07-16T03:54:01;16.10;99.90
18974;DHT22;9621;48.690;9.466;2023-07-16T03:56:28;16.10;99.90
18974;DHT22;9621;48.690;9.466;2023-07-16T03:58:55;16.10;99.90
18974;DHT22;9621;48.690;9.466;2023-07-16T04:01:22;16.10;99.90
18974;DHT22;9621;48.690;9.466;2023-07-16T04:03:50;16.10;99.90
18974;DHT22;9621;48.690;9.466;2023-07-16T04:06:17;16.10;99.90
18974;DHT22;9621;48.690;9.466;2023-07-16T04:08:44;16.10;99.90
18974;DHT22;9621;48.690;9.466;2023-07-16T04:11:11;16.20;99.90
18974;DHT22;9621;48.690;9.466;2023-07-16T04:13:38;16.20;99.90
18974;DHT22;9621;48.690;9.466;2023-07-16T04:16:05;16.20;99.90
18974;DHT22;9621;48.690;9.466;2023-07-16T04:18:31;16.20;99.90
18974;DHT22;9621;48.690;9.466;2023-07-16T04:21:00;16.20;99.90
18974;DHT22;9621;48.690;9.466;2023-07-16T04:23:27;16.30;99.90
18974;DHT22;9621;48.690;9.466;2023-07-16T04:25:55;16.30;99.90
18974;DHT22;9621;48.690;9.466;2023-07-16T04:28:22;16.30;99.90
18974;DHT22;9621;48.690;9.466;2023-07-16T04:30:49;16.30;99.90
18974;DHT22;9621;48.690;9.466;2023-07-16T04:33:16;16.30;99.90
18974;DHT22;9621;48.690;9.466;2023-07-16T04:35:44;16.30;99.90
18974;DHT22;9621;48.690;9.466;2023-07-16T04:38:12;16.40;99.90
18974;DHT22;9621;48.690;9.466;2023-07-16T04:40:41;16.40;99.90
18974;DHT22;9621;48.690;9.466;2023-07-16T04:43:08;16.40;99.90
18974;DHT22;9621;48.690;9.466;2023-07-16T04:45:35;16.40;99.90
18974;DHT22;9621;48.690;9.466;2023-07-16T04:48:04;16.40;99.90
18974;DHT22;9621;48.690;9.466;2023-07-16T04:50:31;16.40;99.90
18974;DHT22;9621;48.690;9.466;2023-07-16T04:52:58;16.50;99.90
18974;DHT22;9621;48.690;9.466;2023-07-16T04:55:27;16.50;99.90
18974;DHT22;9621;48.690;9.466;2023-07-16T04:57:54;16.60;99.90
18974;DHT22;9621;48.690;9.466;2023-07-16T05:00:22;16.70;99.90
18974;DHT22;9621;48.690;9.466;2023-07-16T05:02:49;16.70;99.90
18974;DHT22;9621;48.690;9.466;2023-07-16T05:05:16;16.80;99.90
18974;DHT22;9621;48.690;9.466;2023-07-16T05:07:43;16.90;99.90
18974;DHT22;9621;48.690;9.466;2023-07-16T05:10:10;17.00;99.90
18974;DHT22;9621;48.690;9.466;2023-07-16T05:12:39;17.10;99.90
18974;DHT22;9621;48.690;9.466;2023-07-16T05:15:07;17.20;99.90
18974;DHT22;9621;48.690;9.466;2023-07-16T05:17:34;17.30;99.90
18974;DHT22;9621;48.690;9.466;2023-07-16T05:20:01;17.30;99.90
18974;DHT22;9621;48.690;9.466;2023-07-16T05:22:29;17.30;99.90
18974;DHT22;9621;48.690;9.466;2023-07-16T05:24:56;17.40;99.90
18974;DHT22;9621;48.690;9.466;2023-07-16T05:27:23;17.40;99.90
18974;DHT22;9621;48.690;9.466;2023-07-16T05:29:51;17.40;99.90
18974;DHT22;9621;48.690;9.466;2023-07-16T05:32:18;17.50;99.90
18974;DHT22;9621;48.690;9.466;2023-07-16T05:34:46;17.60;99.90
18974;DHT22;9621;48.690;9.466;2023-07-16T05:37:13;17.80;99.90
18974;DHT22;9621;48.690;9.466;2023-07-16T05:39:39;18.10;99.90
18974;DHT22;9621;48.690;9.466;2023-07-16T05:42:06;18.20;99.90
18974;DHT22;9621;48.690;9.466;2023-07-16T05:44:34;18.30;99.90
18974;DHT22;9621;48.690;9.466;2023-07-16T05:47:03;18.40;99.90
18974;DHT22;9621;48.690;9.466;2023-07-16T05:49:31;18.40;99.90
18974;DHT22;9621;48.690;9.466;2023-07-16T05:51:58;18.40;99.90
18974;DHT22;9621;48.690;9.466;2023-07-16T05:54:25;18.40;99.90
18974;DHT22;9621;48.690;9.466;2023-07-16T05:56:52;18.40;99.90
18974;DHT22;9621;48.690;9.466;2023-07-16T05:59:19;18.40;99.90
18974;DHT22;9621;48.690;9.466;2023-07-16T06:01:47;18.30;99.90
18974;DHT22;9621;48.690;9.466;2023-07-16T06:04:15;18.40;99.90
18974;DHT22;9621;48.690;9.466;2023-07-16T06:06:42;18.40;99.90
18974;DHT22;9621;48.690;9.466;2023-07-16T06:09:09;18.50;99.90
18974;DHT22;9621;48.690;9.466;2023-07-16T06:11:36;18.60;99.90
18974;DHT22;9621;48.690;9.466;2023-07-16T06:14:03;18.80;99.90
18974;DHT22;9621;48.690;9.466;2023-07-16T06:16:30;18.90;99.90
18974;DHT22;9621;48.690;9.466;2023-07-16T06:18:57;19.00;99.90
18974;DHT22;9621;48.690;9.466;2023-07-16T06:21:25;19.10;99.90
18974;DHT22;9621;48.690;9.466;2023-07-16T06:23:52;19.10;99.90
18974;DHT22;9621;48.690;9.466;2023-07-16T06:26:19;19.20;99.90
18974;DHT22;9621;48.690;9.466;2023-07-16T06:28:46;19.00;99.90
18974;DHT22;9621;48.690;9.466;2023-07-16T06:31:14;19.00;99.90
18974;DHT22;9621;48.690;9.466;2023-07-16T06:33:41;19.00;99.90
18974;DHT22;9621;48.690;9.466;2023-07-16T06:36:08;18.90;99.90
18974;DHT22;9621;48.690;9.466;2023-07-16T06:38:36;18.90;99.90
18974;DHT22;9621;48.690;9.466;2023-07-16T06:41:04;18.90;99.90
18974;DHT22;9621;48.690;9.466;2023-07-16T06:43:30;18.90;99.90
18974;DHT22;9621;48.690;9.466;2023-07-16T06:45:57;18.90;99.90
18974;DHT22;9621;48.690;9.466;2023-07-16T06:48:24;18.90;99.90
18974;DHT22;9621;48.690;9.466;2023-07-16T06:50:51;18.90;99.90
18974;DHT22;9621;48.690;9.466;2023-07-16T06:53:18;19.00;99.90
18974;DHT22;9621;48.690;9.466;2023-07-16T06:55:47;19.00;99.90
18974;DHT22;9621;48.690;9.466;2023-07-16T06:58:14;19.00;99.90
18974;DHT22;9621;48.690;9.466;2023-07-16T07:00:41;18.90;99.90
18974;DHT22;9621;48.690;9.466;2023-07-16T07:03:08;19.00;99.90
18974;DHT22;9621;48.690;9.466;2023-07-16T07:05:40;19.00;99.90
18974;DHT22;9621;48.690;9.466;2023-07-16T07:08:07;19.10;99.90
18974;DHT22;9621;48.690;9.466;2023-07-16T07:10:35;19.30;99.90
18974;DHT22;9621;48.690;9.466;2023-07-16T07:13:05;19.40;99.90
18974;DHT22;9621;48.690;9.466;2023-07-16T07:15:32;19.60;99.90
18974;DHT22;9621;48.690;9.466;2023-07-16T07:17:59;19.90;99.90
18974;DHT22;9621;48.690;9.466;2023-07-16T07:20:26;20.40;99.90
18974;DHT22;9621;48.690;9.466;2023-07-16T07:22:53;20.80;99.90
18974;DHT22;9621;48.690;9.466;2023-07-16T07:25:20;21.20;99.90
18974;DHT22;9621;48.690;9.466;2023-07-16T07:27:47;21.40;99.90
18974;DHT22;9621;48.690;9.466;2023-07-16T07:30:16;21.50;99.90
18974;DHT22;9621;48.690;9.466;2023-07-16T07:32:43;21.70;99.90
18974;DHT22;9621;48.690;9.466;2023-07-16T07:35:10;22.00;99.90
18974;DHT22;9621;48.690;9.466;2023-07-16T07:37:37;22.30;99.90
18974;DHT22;9621;48.690;9.466;2023-07-16T07:40:05;22.60;99.90
18974;DHT22;9621;48.690;9.466;2023-07-16T07:42:33;23.10;99.90
18974;DHT22;9621;48.690;9.466;2023-07-16T07:45:00;23.50;99.90
18974;DHT22;9621;48.690;9.466;2023-07-16T07:47:28;23.80;99.90
18974;DHT22;9621;48.690;9.466;2023-07-16T07:49:55;24.20;99.90
18974;DHT22;9621;48.690;9.466;2023-07-16T07:52:22;24.50;99.90
18974;DHT22;9621;48.690;9.466;2023-07-16T07:54:49;24.70;99.90
18974;DHT22;9621;48.690;9.466;2023-07-16T07:57:16;25.00;99.90
18974;DHT22;9621;48.690;9.466;2023-07-16T07:59:42;25.30;99.90
18974;DHT22;9621;48.690;9.466;2023-07-16T08:02:09;25.50;99.90
18974;DHT22;9621;48.690;9.466;2023-07-16T08:04:38;25.50;99.90
18974;DHT22;9621;48.690;9.466;2023-07-16T08:07:05;25.40;99.90
18974;DHT22;9621;48.690;9.466;2023-07-16T08:09:32;25.30;99.90
18974;DHT22;9621;48.690;9.466;2023-07-16T08:11:59;25.10;99.90
18974;DHT22;9621;48.690;9.466;2023-07-16T08:14:25;24.90;99.90
18974;DHT22;9621;48.690;9.466;2023-07-16T08:16:52;24.90;99.90
18974;DHT22;9621;48.690;9.466;2023-07-16T08:19:19;25.10;99.90
18974;DHT22;9621;48.690;9.466;2023-07-16T08:21:47;25.10;99.90
18974;DHT22;9621;48.690;9.466;2023-07-16T08:24:14;25.10;99.90
18974;DHT22;9621;48.690;9.466;2023-07-16T08:26:41;25.20;99.90
18974;DHT22;9621;48.690;9.466;2023-07-16T08:29:08;25.50;99.90
18974;DHT22;9621;48.690;9.466;2023-07-16T08:31:34;25.90;99.90
18974;DHT22;9621;48.690;9.466;2023-07-16T08:34:01;26.20;99.90
18974;DHT22;9621;48.690;9.466;2023-07-16T08:36:28;26.30;99.90
18974;DHT22;9621;48.690;9.466;2023-07-16T08:38:56;26.20;99.90
18974;DHT22;9621;48.690;9.466;2023-07-16T08:41:23;26.10;99.90
18974;DHT22;9621;48.690;9.466;2023-07-16T08:43:50;25.90;99.90
18974;DHT22;9621;48.690;9.466;2023-07-16T08:46:17;25.60;99.90
18974;DHT22;9621;48.690;9.466;2023-07-16T08:48:45;25.40;99.90
18974;DHT22;9621;48.690;9.466;2023-07-16T08:51:15;25.30;99.90
18974;DHT22;9621;48.690;9.466;2023-07-16T08:53:42;25.40;99.90
18974;DHT22;9621;48.690;9.466;2023-07-16T08:56:10;25.60;99.90
18974;DHT22;9621;48.690;9.466;2023-07-16T08:58:37;26.00;99.90
18974;DHT22;9621;48.690;9.466;2023-07-16T09:01:05;26.40;99.90
18974;DHT22;9621;48.690;9.466;2023-07-16T09:03:32;26.80;99.90
18974;DHT22;9621;48.690;9.466;2023-07-16T09:05:59;27.00;99.90
18974;DHT22;9621;48.690;9.466;2023-07-16T09:08:28;27.10;99.90
18974;DHT22;9621;48.690;9.466;2023-07-16T09:10:56;27.10;99.90
18974;DHT22;9621;48.690;9.466;2023-07-16T09:13:25;27.20;99.90
18974;DHT22;9621;48.690;9.466;2023-07-16T09:15:54;27.20;99.20
18974;DHT22;9621;48.690;9.466;2023-07-16T09:18:21;27.40;99.90
18974;DHT22;9621;48.690;9.466;2023-07-16T09:20:48;27.50;99.90
18974;DHT22;9621;48.690;9.466;2023-07-16T09:23:17;27.80;99.90
18974;DHT22;9621;48.690;9.466;2023-07-16T09:25:44;28.10;97.50
18974;DHT22;9621;48.690;9.466;2023-07-16T09:28:12;28.30;98.00
18974;DHT22;9621;48.690;9.466;2023-07-16T09:30:40;28.50;96.50
18974;DHT22;9621;48.690;9.466;2023-07-16T09:33:10;28.60;95.50
18974;DHT22;9621;48.690;9.466;2023-07-16T09:35:38;28.80;94.60
18974;DHT22;9621;48.690;9.466;2023-07-16T09:38:07;28.90;95.60
18974;DHT22;9621;48.690;9.466;2023-07-16T09:40:35;29.00;94.50
18974;DHT22;9621;48.690;9.466;2023-07-16T09:43:03;29.00;92.90
18974;DHT22;9621;48.690;9.466;2023-07-16T09:45:30;28.80;92.60
18974;DHT22;9621;48.690;9.466;2023-07-16T09:47:58;28.50;91.20
18974;DHT22;9621;48.690;9.466;2023-07-16T09:50:27;28.10;91.60
18974;DHT22;9621;48.690;9.466;2023-07-16T09:52:55;28.00;92.50
18974;DHT22;9621;48.690;9.466;2023-07-16T09:55:23;27.90;93.40
18974;DHT22;9621;48.690;9.466;2023-07-16T09:57:52;27.90;93.20
18974;DHT22;9621;48.690;9.466;2023-07-16T10:00:20;28.10;93.80
18974;DHT22;9621;48.690;9.466;2023-07-16T10:02:47;28.30;94.10
18974;DHT22;9621;48.690;9.466;2023-07-16T10:05:18;28.50;93.10
18974;DHT22;9621;48.690;9.466;2023-07-16T10:07:50;28.60;90.50
18974;DHT22;9621;48.690;9.466;2023-07-16T10:10:18;28.60;89.30
18974;DHT22;9621;48.690;9.466;2023-07-16T10:12:55;28.50;91.90
18974;DHT22;9621;48.690;9.466;2023-07-16T10:15:25;28.30;86.40
18974;DHT22;9621;48.690;9.466;2023-07-16T10:17:53;28.30;90.80
18974;DHT22;9621;48.690;9.466;2023-07-16T10:20:30;28.40;91.70
18974;DHT22;9621;48.690;9.466;2023-07-16T10:22:57;28.50;85.80
18974;DHT22;9621;48.690;9.466;2023-07-16T10:25:26;28.70;90.70
18974;DHT22;9621;48.690;9.466;2023-07-16T10:27:55;28.90;90.70
18974;DHT22;9621;48.690;9.466;2023-07-16T10:30:22;29.00;90.10
18974;DHT22;9621;48.690;9.466;2023-07-16T10:32:51;29.00;90.10
18974;DHT22;9621;48.690;9.466;2023-07-16T10:35:19;29.00;86.90
18974;DHT22;9621;48.690;9.466;2023-07-16T10:37:47;28.90;88.40
18974;DHT22;9621;48.690;9.466;2023-07-16T10:40:14;28.70;87.50
18974;DHT22;9621;48.690;9.466;2023-07-16T10:42:42;28.50;87.90
18974;DHT22;9621;48.690;9.466;2023-07-16T10:45:10;28.30;88.30
18974;DHT22;9621;48.690;9.466;2023-07-16T10:47:38;28.20;89.30
18974;DHT22;9621;48.690;9.466;2023-07-16T10:50:06;28.30;89.30
18974;DHT22;9621;48.690;9.466;2023-07-16T10:52:34;28.30;90.00
18974;DHT22;9621;48.690;9.466;2023-07-16T10:55:03;28.40;89.90
18974;DHT22;9621;48.690;9.466;2023-07-16T10:57:30;28.70;88.80
18974;DHT22;9621;48.690;9.466;2023-07-16T10:59:58;28.80;88.10
18974;DHT22;9621;48.690;9.466;2023-07-16T11:02:26;28.90;88.90
18974;DHT22;9621;48.690;9.466;2023-07-16T11:04:53;29.10;88.50
18974;DHT22;9621;48.690;9.466;2023-07-16T11:07:23;29.30;86.70
18974;DHT22;9621;48.690;9.466;2023-07-16T11:09:51;29.40;86.60
18974;DHT22;9621;48.690;9.466;2023-07-16T11:12:21;29.40;84.80
18974;DHT22;9621;48.690;9.466;2023-07-16T11:14:50;29.40;80.60
18974;DHT22;9621;48.690;9.466;2023-07-16T11:17:17;29.40;85.80
18974;DHT22;9621;48.690;9.466;2023-07-16T11:19:45;29.40;85.10
18974;DHT22;9621;48.690;9.466;2023-07-16T11:22:13;29.50;82.90
18974;DHT22;9621;48.690;9.466;2023-07-16T11:24:42;29.40;82.30
18974;DHT22;9621;48.690;9.466;2023-07-16T11:27:13;29.40;81.70
18974;DHT22;9621;48.690;9.466;2023-07-16T11:29:45;29.30;76.50
18974;DHT22;9621;48.690;9.466;2023-07-16T11:32:11;29.20;78.70
18974;DHT22;9621;48.690;9.466;2023-07-16T11:34:51;29.00;77.90
18974;DHT22;9621;48.690;9.466;2023-07-16T11:37:18;28.70;74.30
18974;DHT22;9621;48.690;9.466;2023-07-16T11:39:46;28.40;80.70
18974;DHT22;9621;48.690;9.466;2023-07-16T11:42:13;28.10;82.30
18974;DHT22;9621;48.690;9.466;2023-07-16T11:44:41;28.10;84.80
18974;DHT22;9621;48.690;9.466;2023-07-16T11:47:08;28.10;84.40
18974;DHT22;9621;48.690;9.466;2023-07-16T11:49:35;28.20;84.20
18974;DHT22;9621;48.690;9.466;2023-07-16T11:52:02;28.30;83.40
18974;DHT22;9621;48.690;9.466;2023-07-16T11:54:29;28.30;84.90
18974;DHT22;9621;48.690;9.466;2023-07-16T11:56:56;28.30;84.70
18974;DHT22;9621;48.690;9.466;2023-07-16T11:59:23;28.30;83.70
18974;DHT22;9621;48.690;9.466;2023-07-16T12:01:51;28.40;83.30
18974;DHT22;9621;48.690;9.466;2023-07-16T12:04:19;28.50;83.20
18974;DHT22;9621;48.690;9.466;2023-07-16T12:06:46;28.50;84.20
18974;DHT22;9621;48.690;9.466;2023-07-16T12:09:12;28.50;83.90
18974;DHT22;9621;48.690;9.466;2023-07-16T12:11:40;28.60;82.90
18974;DHT22;9621;48.690;9.466;2023-07-16T12:14:06;28.60;82.00
18974;DHT22;9621;48.690;9.466;2023-07-16T12:16:34;28.50;82.40
18974;DHT22;9621;48.690;9.466;2023-07-16T12:19:02;28.40;82.50
18974;DHT22;9621;48.690;9.466;2023-07-16T12:21:29;28.30;81.60
18974;DHT22;9621;48.690;9.466;2023-07-16T12:23:56;28.30;83.90
18974;DHT22;9621;48.690;9.466;2023-07-16T12:26:23;28.40;84.30
18974;DHT22;9621;48.690;9.466;2023-07-16T12:28:50;28.60;82.50
18974;DHT22;9621;48.690;9.466;2023-07-16T12:31:17;28.80;82.10
18974;DHT22;9621;48.690;9.466;2023-07-16T12:33:45;29.00;81.80
18974;DHT22;9621;48.690;9.466;2023-07-16T12:36:15;29.10;80.70
18974;DHT22;9621;48.690;9.466;2023-07-16T12:38:42;29.10;78.60
18974;DHT22;9621;48.690;9.466;2023-07-16T12:41:09;29.00;80.10
18974;DHT22;9621;48.690;9.466;2023-07-16T12:43:35;29.00;81.30
18974;DHT22;9621;48.690;9.466;2023-07-16T12:46:04;29.00;82.60
18974;DHT22;9621;48.690;9.466;2023-07-16T12:48:31;29.10;82.90
18974;DHT22;9621;48.690;9.466;2023-07-16T12:50:58;29.40;83.10
18974;DHT22;9621;48.690;9.466;2023-07-16T12:53:26;29.60;82.60
18974;DHT22;9621;48.690;9.466;2023-07-16T12:55:53;29.90;80.60
18974;DHT22;9621;48.690;9.466;2023-07-16T12:58:21;30.00;80.10
18974;DHT22;9621;48.690;9.466;2023-07-16T13:00:48;30.10;79.50
18974;DHT22;9621;48.690;9.466;2023-07-16T13:03:15;30.20;78.60
18974;DHT22;9621;48.690;9.466;2023-07-16T13:05:43;30.20;78.70
18974;DHT22;9621;48.690;9.466;2023-07-16T13:08:11;30.20;77.80
18974;DHT22;9621;48.690;9.466;2023-07-16T13:10:39;30.30;78.30
18974;DHT22;9621;48.690;9.466;2023-07-16T13:13:07;30.30;78.00
18974;DHT22;9621;48.690;9.466;2023-07-16T13:15:34;30.40;78.50
18974;DHT22;9621;48.690;9.466;2023-07-16T13:18:01;30.40;77.20
18974;DHT22;9621;48.690;9.466;2023-07-16T13:20:28;30.30;77.60
18974;DHT22;9621;48.690;9.466;2023-07-16T13:22:55;30.30;76.60
18974;DHT22;9621;48.690;9.466;2023-07-16T13:25:23;30.10;76.00
18974;DHT22;9621;48.690;9.466;2023-07-16T13:27:51;30.00;74.90
18974;DHT22;9621;48.690;9.466;2023-07-16T13:30:19;29.70;74.80
18974;DHT22;9621;48.690;9.466;2023-07-16T13:32:46;29.40;77.10
18974;DHT22;9621;48.690;9.466;2023-07-16T13:35:14;29.30;77.40
18974;DHT22;9621;48.690;9.466;2023-07-16T13:37:41;29.10;77.30
18974;DHT22;9621;48.690;9.466;2023-07-16T13:40:08;29.10;77.10
18974;DHT22;9621;48.690;9.466;2023-07-16T13:42:35;29.00;78.40
18974;DHT22;9621;48.690;9.466;2023-07-16T13:45:05;29.10;79.50
18974;DHT22;9621;48.690;9.466;2023-07-16T13:47:32;29.30;78.20
18974;DHT22;9621;48.690;9.466;2023-07-16T13:49:58;29.50;80.00
18974;DHT22;9621;48.690;9.466;2023-07-16T13:52:25;29.80;79.40
18974;DHT22;9621;48.690;9.466;2023-07-16T13:54:52;30.00;78.50
18974;DHT22;9621;48.690;9.466;2023-07-16T13:57:19;30.20;77.50
18974;DHT22;9621;48.690;9.466;2023-07-16T13:59:46;30.30;77.40
18974;DHT22;9621;48.690;9.466;2023-07-16T14:02:15;30.40;77.00
18974;DHT22;9621;48.690;9.466;2023-07-16T14:04:42;30.50;74.50
18974;DHT22;9621;48.690;9.466;2023-07-16T14:07:09;30.60;75.50
18974;DHT22;9621;48.690;9.466;2023-07-16T14:09:36;30.60;76.30
18974;DHT22;9621;48.690;9.466;2023-07-16T14:12:04;30.70;75.40
18974;DHT22;9621;48.690;9.466;2023-07-16T14:14:31;30.70;74.00
18974;DHT22;9621;48.690;9.466;2023-07-16T14:16:57;30.80;74.50
18974;DHT22;9621;48.690;9.466;2023-07-16T14:19:26;30.70;73.40
18974;DHT22;9621;48.690;9.466;2023-07-16T14:21:54;30.60;71.30
18974;DHT22;9621;48.690;9.466;2023-07-16T14:24:22;30.50;72.30
18974;DHT22;9621;48.690;9.466;2023-07-16T14:26:48;30.50;73.40
18974;DHT22;9621;48.690;9.466;2023-07-16T14:29:15;30.50;73.10
18974;DHT22;9621;48.690;9.466;2023-07-16T14:31:42;30.40;71.70
18974;DHT22;9621;48.690;9.466;2023-07-16T14:34:09;30.30;71.90
18974;DHT22;9621;48.690;9.466;2023-07-16T14:36:40;30.20;71.80
18974;DHT22;9621;48.690;9.466;2023-07-16T14:39:07;30.10;70.70
18974;DHT22;9621;48.690;9.466;2023-07-16T14:41:34;30.10;73.20
18974;DHT22;9621;48.690;9.466;2023-07-16T14:44:01;30.10;73.20
18974;DHT22;9621;48.690;9.466;2023-07-16T14:46:28;30.10;72.60
18974;DHT22;9621;48.690;9.466;2023-07-16T14:48:55;30.10;72.80
18974;DHT22;9621;48.690;9.466;2023-07-16T14:51:24;30.00;72.60
18974;DHT22;9621;48.690;9.466;2023-07-16T14:53:52;29.90;71.60
18974;DHT22;9621;48.690;9.466;2023-07-16T14:56:19;29.70;70.50
18974;DHT22;9621;48.690;9.466;2023-07-16T14:58:46;29.50;71.80
18974;DHT22;9621;48.690;9.466;2023-07-16T15:01:13;29.40;71.20
18974;DHT22;9621;48.690;9.466;2023-07-16T15:03:40;29.20;70.80
18974;DHT22;9621;48.690;9.466;2023-07-16T15:06:07;28.90;71.00
18974;DHT22;9621;48.690;9.466;2023-07-16T15:08:35;28.60;71.40
18974;DHT22;9621;48.690;9.466;2023-07-16T15:11:03;28.50;71.70
18974;DHT22;9621;48.690;9.466;2023-07-16T15:13:30;28.30;71.40
18974;DHT22;9621;48.690;9.466;2023-07-16T15:15:57;28.10;73.10
18974;DHT22;9621;48.690;9.466;2023-07-16T15:18:24;27.90;72.80
18974;DHT22;9621;48.690;9.466;2023-07-16T15:20:56;27.80;72.00
18974;DHT22;9621;48.690;9.466;2023-07-16T15:23:23;27.60;69.10
18974;DHT22;9621;48.690;9.466;2023-07-16T15:25:50;27.40;72.00
18974;DHT22;9621;48.690;9.466;2023-07-16T15:28:19;27.20;73.10
18974;DHT22;9621;48.690;9.466;2023-07-16T15:30:45;27.10;72.60
18974;DHT22;9621;48.690;9.466;2023-07-16T15:33:12;27.10;74.20
18974;DHT22;9621;48.690;9.466;2023-07-16T15:35:39;27.10;75.10
18974;DHT22;9621;48.690;9.466;2023-07-16T15:38:06;27.30;76.80
18974;DHT22;9621;48.690;9.466;2023-07-16T15:40:33;27.50;77.30
18974;DHT22;9621;48.690;9.466;2023-07-16T15:43:01;27.80;77.40
18974;DHT22;9621;48.690;9.466;2023-07-16T15:45:29;28.20;76.30
18974;DHT22;9621;48.690;9.466;2023-07-16T15:47:56;28.50;76.50